Cleaton, Kentucky
Current Conditions -  °F | °C
As of 4:15 PM on Sunday 25 Jan 2015 (Local Time) from K2I0 Reporting Station
Drizzle Drizzle  
Wind Chill: 38°   Ceiling: 2000
Heat Index: 44°   Visibility: 10mi
Dew Point: 43°   Wind: 12mph
Humidity: 97%   Direction: 260°W
Pressure: 29.63"   Gusts: NA
Location:  37.25°N, 87.09°W
Report Text: K2I0 252215Z AUTO 26010KT 10SM DZ SCT011 BKN020 OVC034 07/06 A2963 RMK AO2 T00650060
Loading
Personal Weather Stations






























Interactive Weather Map New forecast layout! Learn more

10-Day Weather Forecast

Advertisements
Track Severe Weather on mobile